sensor_id;sensor_type;location;lat;lon;timestamp;P1;durP1;ratioP1;P2;durP2;ratioP2
2602;SDS011;1311;47.966;7.958;2023-11-22T00:02:23;11.40;;;8.20;;
2602;SDS011;1311;47.966;7.958;2023-11-22T00:04:53;9.93;;;7.33;;
2602;SDS011;1311;47.966;7.958;2023-11-22T00:07:20;11.80;;;8.97;;
2602;SDS011;1311;47.966;7.958;2023-11-22T00:09:47;15.10;;;9.60;;
2602;SDS011;1311;47.966;7.958;2023-11-22T00:12:14;17.07;;;10.83;;
2602;SDS011;1311;47.966;7.958;2023-11-22T00:14:44;15.00;;;9.50;;
2602;SDS011;1311;47.966;7.958;2023-11-22T00:17:12;11.40;;;7.80;;
2602;SDS011;1311;47.966;7.958;2023-11-22T00:19:38;13.87;;;9.00;;
2602;SDS011;1311;47.966;7.958;2023-11-22T00:22:05;20.33;;;12.30;;
2602;SDS011;1311;47.966;7.958;2023-11-22T00:24:38;16.03;;;10.40;;
2602;SDS011;1311;47.966;7.958;2023-11-22T00:27:04;19.07;;;11.33;;
2602;SDS011;1311;47.966;7.958;2023-11-22T00:29:31;11.93;;;7.67;;
2602;SDS011;1311;47.966;7.958;2023-11-22T00:31:59;11.10;;;8.63;;
2602;SDS011;1311;47.966;7.958;2023-11-22T00:34:26;9.63;;;7.90;;
2602;SDS011;1311;47.966;7.958;2023-11-22T00:36:53;10.57;;;8.17;;
2602;SDS011;1311;47.966;7.958;2023-11-22T00:39:20;11.20;;;7.17;;
2602;SDS011;1311;47.966;7.958;2023-11-22T00:41:47;10.53;;;7.93;;
2602;SDS011;1311;47.966;7.958;2023-11-22T00:44:14;12.90;;;8.27;;
2602;SDS011;1311;47.966;7.958;2023-11-22T00:46:41;10.20;;;7.77;;
2602;SDS011;1311;47.966;7.958;2023-11-22T00:49:12;10.00;;;7.70;;
2602;SDS011;1311;47.966;7.958;2023-11-22T00:51:38;9.87;;;7.90;;
2602;SDS011;1311;47.966;7.958;2023-11-22T00:54:05;12.60;;;8.53;;
2602;SDS011;1311;47.966;7.958;2023-11-22T00:56:32;10.90;;;8.83;;
2602;SDS011;1311;47.966;7.958;2023-11-22T00:58:59;10.40;;;7.57;;
2602;SDS011;1311;47.966;7.958;2023-11-22T01:01:29;9.00;;;7.57;;
2602;SDS011;1311;47.966;7.958;2023-11-22T01:03:56;16.27;;;10.17;;
2602;SDS011;1311;47.966;7.958;2023-11-22T01:06:24;12.63;;;9.77;;
2602;SDS011;1311;47.966;7.958;2023-11-22T01:08:52;19.23;;;10.87;;
2602;SDS011;1311;47.966;7.958;2023-11-22T01:11:18;16.63;;;10.63;;
2602;SDS011;1311;47.966;7.958;2023-11-22T01:13:45;18.57;;;12.10;;
2602;SDS011;1311;47.966;7.958;2023-11-22T01:16:12;15.90;;;12.07;;
2602;SDS011;1311;47.966;7.958;2023-11-22T01:18:38;17.10;;;12.30;;
2602;SDS011;1311;47.966;7.958;2023-11-22T01:21:05;15.50;;;10.43;;
2602;SDS011;1311;47.966;7.958;2023-11-22T01:23:34;15.87;;;11.20;;
2602;SDS011;1311;47.966;7.958;2023-11-22T01:26:01;16.53;;;11.30;;
2602;SDS011;1311;47.966;7.958;2023-11-22T01:28:29;15.07;;;10.47;;
2602;SDS011;1311;47.966;7.958;2023-11-22T01:30:59;15.10;;;10.80;;
2602;SDS011;1311;47.966;7.958;2023-11-22T01:33:26;15.10;;;10.63;;
2602;SDS011;1311;47.966;7.958;2023-11-22T01:35:52;17.60;;;11.27;;
2602;SDS011;1311;47.966;7.958;2023-11-22T01:38:19;16.50;;;10.80;;
2602;SDS011;1311;47.966;7.958;2023-11-22T01:40:47;14.10;;;9.80;;
2602;SDS011;1311;47.966;7.958;2023-11-22T01:43:16;16.93;;;10.93;;
2602;SDS011;1311;47.966;7.958;2023-11-22T01:45:44;14.83;;;9.33;;
2602;SDS011;1311;47.966;7.958;2023-11-22T01:48:11;15.33;;;11.47;;
2602;SDS011;1311;47.966;7.958;2023-11-22T01:50:38;11.47;;;9.27;;
2602;SDS011;1311;47.966;7.958;2023-11-22T01:53:06;17.93;;;11.00;;
2602;SDS011;1311;47.966;7.958;2023-11-22T01:55:33;15.50;;;11.20;;
2602;SDS011;1311;47.966;7.958;2023-11-22T01:58:02;16.97;;;11.43;;
2602;SDS011;1311;47.966;7.958;2023-11-22T02:00:30;19.10;;;12.40;;
2602;SDS011;1311;47.966;7.958;2023-11-22T02:03:01;15.40;;;11.47;;
2602;SDS011;1311;47.966;7.958;2023-11-22T02:05:28;16.63;;;12.13;;
2602;SDS011;1311;47.966;7.958;2023-11-22T02:07:55;19.67;;;12.70;;
2602;SDS011;1311;47.966;7.958;2023-11-22T02:10:23;19.03;;;11.30;;
2602;SDS011;1311;47.966;7.958;2023-11-22T02:12:50;17.57;;;12.30;;
2602;SDS011;1311;47.966;7.958;2023-11-22T02:15:18;16.93;;;12.00;;
2602;SDS011;1311;47.966;7.958;2023-11-22T02:17:45;18.97;;;12.87;;
2602;SDS011;1311;47.966;7.958;2023-11-22T02:20:11;19.67;;;12.43;;
2602;SDS011;1311;47.966;7.958;2023-11-22T02:22:42;17.77;;;12.10;;
2602;SDS011;1311;47.966;7.958;2023-11-22T02:25:11;20.57;;;12.63;;
2602;SDS011;1311;47.966;7.958;2023-11-22T02:27:38;21.00;;;12.57;;
2602;SDS011;1311;47.966;7.958;2023-11-22T02:30:05;20.33;;;13.50;;
2602;SDS011;1311;47.966;7.958;2023-11-22T02:32:33;21.77;;;14.23;;
2602;SDS011;1311;47.966;7.958;2023-11-22T02:35:00;20.87;;;13.33;;
2602;SDS011;1311;47.966;7.958;2023-11-22T02:37:29;19.83;;;12.90;;
2602;SDS011;1311;47.966;7.958;2023-11-22T02:39:57;23.53;;;13.40;;
2602;SDS011;1311;47.966;7.958;2023-11-22T02:42:30;24.53;;;14.07;;
2602;SDS011;1311;47.966;7.958;2023-11-22T02:44:58;24.80;;;13.87;;
2602;SDS011;1311;47.966;7.958;2023-11-22T02:47:24;21.13;;;12.83;;
2602;SDS011;1311;47.966;7.958;2023-11-22T02:49:51;22.70;;;14.03;;
2602;SDS011;1311;47.966;7.958;2023-11-22T02:52:20;17.20;;;11.80;;
2602;SDS011;1311;47.966;7.958;2023-11-22T02:54:46;21.47;;;13.00;;
2602;SDS011;1311;47.966;7.958;2023-11-22T02:57:14;17.73;;;12.10;;
2602;SDS011;1311;47.966;7.958;2023-11-22T02:59:42;20.07;;;12.83;;
2602;SDS011;1311;47.966;7.958;2023-11-22T03:02:09;19.97;;;13.80;;
2602;SDS011;1311;47.966;7.958;2023-11-22T03:04:36;20.53;;;13.70;;
2602;SDS011;1311;47.966;7.958;2023-11-22T03:07:03;20.03;;;13.03;;
2602;SDS011;1311;47.966;7.958;2023-11-22T03:09:31;19.07;;;13.87;;
2602;SDS011;1311;47.966;7.958;2023-11-22T03:11:58;19.40;;;13.20;;
2602;SDS011;1311;47.966;7.958;2023-11-22T03:14:25;23.23;;;13.00;;
2602;SDS011;1311;47.966;7.958;2023-11-22T03:16:53;17.53;;;12.10;;
2602;SDS011;1311;47.966;7.958;2023-11-22T03:19:19;22.70;;;11.93;;
2602;SDS011;1311;47.966;7.958;2023-11-22T03:21:46;18.83;;;13.13;;
2602;SDS011;1311;47.966;7.958;2023-11-22T03:24:14;15.63;;;11.40;;
2602;SDS011;1311;47.966;7.958;2023-11-22T03:26:41;18.93;;;11.10;;
2602;SDS011;1311;47.966;7.958;2023-11-22T03:29:08;17.40;;;11.73;;
2602;SDS011;1311;47.966;7.958;2023-11-22T03:31:35;16.43;;;11.50;;
2602;SDS011;1311;47.966;7.958;2023-11-22T03:34:03;16.60;;;10.27;;
2602;SDS011;1311;47.966;7.958;2023-11-22T03:36:31;12.07;;;8.93;;
2602;SDS011;1311;47.966;7.958;2023-11-22T03:38:57;10.53;;;8.00;;
2602;SDS011;1311;47.966;7.958;2023-11-22T03:41:24;9.10;;;6.57;;
2602;SDS011;1311;47.966;7.958;2023-11-22T03:43:51;9.40;;;6.37;;
2602;SDS011;1311;47.966;7.958;2023-11-22T03:46:17;7.93;;;5.87;;
2602;SDS011;1311;47.966;7.958;2023-11-22T03:48:44;6.53;;;5.83;;
2602;SDS011;1311;47.966;7.958;2023-11-22T03:51:13;8.17;;;6.27;;
2602;SDS011;1311;47.966;7.958;2023-11-22T03:53:41;7.57;;;6.33;;
2602;SDS011;1311;47.966;7.958;2023-11-22T03:56:07;8.37;;;6.60;;
2602;SDS011;1311;47.966;7.958;2023-11-22T03:58:34;12.10;;;8.50;;
2602;SDS011;1311;47.966;7.958;2023-11-22T04:01:01;10.83;;;8.20;;
2602;SDS011;1311;47.966;7.958;2023-11-22T04:03:28;9.90;;;8.20;;
2602;SDS011;1311;47.966;7.958;2023-11-22T04:05:55;10.33;;;7.77;;
2602;SDS011;1311;47.966;7.958;2023-11-22T04:08:23;12.30;;;8.63;;
2602;SDS011;1311;47.966;7.958;2023-11-22T04:10:50;11.23;;;8.37;;
2602;SDS011;1311;47.966;7.958;2023-11-22T04:13:17;11.13;;;8.33;;
2602;SDS011;1311;47.966;7.958;2023-11-22T04:15:44;12.60;;;8.10;;
2602;SDS011;1311;47.966;7.958;2023-11-22T04:18:11;14.90;;;9.30;;
2602;SDS011;1311;47.966;7.958;2023-11-22T04:20:37;13.20;;;9.20;;
2602;SDS011;1311;47.966;7.958;2023-11-22T04:23:05;13.57;;;7.80;;
2602;SDS011;1311;47.966;7.958;2023-11-22T04:25:33;11.37;;;8.13;;
2602;SDS011;1311;47.966;7.958;2023-11-22T04:28:00;14.13;;;9.37;;
2602;SDS011;1311;47.966;7.958;2023-11-22T04:30:27;14.83;;;7.70;;
2602;SDS011;1311;47.966;7.958;2023-11-22T04:32:54;11.50;;;8.53;;
2602;SDS011;1311;47.966;7.958;2023-11-22T04:35:20;10.10;;;7.43;;
2602;SDS011;1311;47.966;7.958;2023-11-22T04:37:47;9.87;;;7.50;;
2602;SDS011;1311;47.966;7.958;2023-11-22T04:40:14;12.23;;;7.93;;
2602;SDS011;1311;47.966;7.958;2023-11-22T04:42:42;12.87;;;7.97;;
2602;SDS011;1311;47.966;7.958;2023-11-22T04:45:09;8.10;;;7.30;;
2602;SDS011;1311;47.966;7.958;2023-11-22T04:47:36;32.83;;;7.97;;
2602;SDS011;1311;47.966;7.958;2023-11-22T04:50:03;14.90;;;6.67;;
2602;SDS011;1311;47.966;7.958;2023-11-22T04:52:30;8.07;;;6.37;;
2602;SDS011;1311;47.966;7.958;2023-11-22T04:54:58;9.97;;;6.70;;
2602;SDS011;1311;47.966;7.958;2023-11-22T04:57:24;9.33;;;7.37;;
2602;SDS011;1311;47.966;7.958;2023-11-22T04:59:52;9.67;;;7.20;;
2602;SDS011;1311;47.966;7.958;2023-11-22T05:02:19;10.20;;;7.10;;
2602;SDS011;1311;47.966;7.958;2023-11-22T05:04:46;16.30;;;6.83;;
2602;SDS011;1311;47.966;7.958;2023-11-22T05:07:14;9.00;;;7.37;;
2602;SDS011;1311;47.966;7.958;2023-11-22T05:09:40;9.47;;;7.00;;
2602;SDS011;1311;47.966;7.958;2023-11-22T05:12:08;10.80;;;7.27;;
2602;SDS011;1311;47.966;7.958;2023-11-22T05:14:35;7.27;;;5.90;;
2602;SDS011;1311;47.966;7.958;2023-11-22T05:17:04;13.50;;;7.00;;
2602;SDS011;1311;47.966;7.958;2023-11-22T05:19:30;9.13;;;6.90;;
2602;SDS011;1311;47.966;7.958;2023-11-22T05:21:57;12.80;;;7.40;;
2602;SDS011;1311;47.966;7.958;2023-11-22T05:24:24;13.17;;;6.77;;
2602;SDS011;1311;47.966;7.958;2023-11-22T05:26:52;14.13;;;7.20;;
2602;SDS011;1311;47.966;7.958;2023-11-22T05:29:18;16.63;;;7.70;;
2602;SDS011;1311;47.966;7.958;2023-11-22T05:31:45;9.97;;;8.23;;
2602;SDS011;1311;47.966;7.958;2023-11-22T05:34:13;16.47;;;7.90;;
2602;SDS011;1311;47.966;7.958;2023-11-22T05:36:40;8.53;;;7.07;;
2602;SDS011;1311;47.966;7.958;2023-11-22T05:39:07;10.20;;;7.17;;
2602;SDS011;1311;47.966;7.958;2023-11-22T05:41:34;10.03;;;7.37;;
2602;SDS011;1311;47.966;7.958;2023-11-22T05:44:01;9.73;;;8.00;;
2602;SDS011;1311;47.966;7.958;2023-11-22T05:46:28;10.83;;;7.03;;
2602;SDS011;1311;47.966;7.958;2023-11-22T05:48:55;9.87;;;7.30;;
2602;SDS011;1311;47.966;7.958;2023-11-22T05:51:23;9.80;;;7.17;;
2602;SDS011;1311;47.966;7.958;2023-11-22T05:53:50;10.67;;;8.07;;
2602;SDS011;1311;47.966;7.958;2023-11-22T05:56:17;11.23;;;7.77;;
2602;SDS011;1311;47.966;7.958;2023-11-22T05:58:44;10.43;;;7.90;;
2602;SDS011;1311;47.966;7.958;2023-11-22T06:01:11;9.20;;;7.20;;
2602;SDS011;1311;47.966;7.958;2023-11-22T06:03:38;11.47;;;7.90;;
2602;SDS011;1311;47.966;7.958;2023-11-22T06:06:05;8.60;;;6.83;;
2602;SDS011;1311;47.966;7.958;2023-11-22T06:08:33;7.70;;;6.67;;
2602;SDS011;1311;47.966;7.958;2023-11-22T06:11:00;8.23;;;6.30;;
2602;SDS011;1311;47.966;7.958;2023-11-22T06:13:28;7.40;;;6.00;;
2602;SDS011;1311;47.966;7.958;2023-11-22T06:15:54;6.47;;;5.77;;
2602;SDS011;1311;47.966;7.958;2023-11-22T06:18:21;9.67;;;6.20;;
2602;SDS011;1311;47.966;7.958;2023-11-22T06:20:54;6.37;;;5.40;;
2602;SDS011;1311;47.966;7.958;2023-11-22T06:23:21;6.37;;;5.47;;
2602;SDS011;1311;47.966;7.958;2023-11-22T06:25:49;7.70;;;5.43;;
2602;SDS011;1311;47.966;7.958;2023-11-22T06:28:16;8.03;;;5.50;;
2602;SDS011;1311;47.966;7.958;2023-11-22T06:30:44;6.60;;;5.43;;
2602;SDS011;1311;47.966;7.958;2023-11-22T06:33:10;6.00;;;4.60;;
2602;SDS011;1311;47.966;7.958;2023-11-22T06:35:37;5.07;;;4.60;;
2602;SDS011;1311;47.966;7.958;2023-11-22T06:38:04;5.63;;;4.93;;
2602;SDS011;1311;47.966;7.958;2023-11-22T06:40:30;5.47;;;4.70;;
2602;SDS011;1311;47.966;7.958;2023-11-22T06:42:59;8.10;;;5.10;;
2602;SDS011;1311;47.966;7.958;2023-11-22T06:45:25;4.70;;;4.00;;
2602;SDS011;1311;47.966;7.958;2023-11-22T06:47:52;6.13;;;4.30;;
2602;SDS011;1311;47.966;7.958;2023-11-22T06:50:19;5.93;;;4.93;;
2602;SDS011;1311;47.966;7.958;2023-11-22T06:52:45;6.37;;;5.13;;
2602;SDS011;1311;47.966;7.958;2023-11-22T06:55:15;4.60;;;3.80;;
2602;SDS011;1311;47.966;7.958;2023-11-22T06:57:42;5.10;;;4.60;;
2602;SDS011;1311;47.966;7.958;2023-11-22T07:00:11;6.10;;;4.50;;
2602;SDS011;1311;47.966;7.958;2023-11-22T07:02:38;9.83;;;4.70;;
2602;SDS011;1311;47.966;7.958;2023-11-22T07:05:05;7.20;;;4.90;;
2602;SDS011;1311;47.966;7.958;2023-11-22T07:07:34;8.60;;;5.03;;
2602;SDS011;1311;47.966;7.958;2023-11-22T07:09:59;5.63;;;4.50;;
2602;SDS011;1311;47.966;7.958;2023-11-22T07:12:26;5.40;;;4.30;;
2602;SDS011;1311;47.966;7.958;2023-11-22T07:14:54;6.40;;;3.93;;
2602;SDS011;1311;47.966;7.958;2023-11-22T07:17:22;4.60;;;4.10;;
2602;SDS011;1311;47.966;7.958;2023-11-22T07:19:49;5.30;;;4.10;;
2602;SDS011;1311;47.966;7.958;2023-11-22T07:22:16;4.57;;;4.07;;
2602;SDS011;1311;47.966;7.958;2023-11-22T07:24:44;5.23;;;4.30;;
2602;SDS011;1311;47.966;7.958;2023-11-22T07:27:12;6.20;;;4.57;;
2602;SDS011;1311;47.966;7.958;2023-11-22T07:29:39;4.67;;;3.47;;
2602;SDS011;1311;47.966;7.958;2023-11-22T07:32:07;5.07;;;4.40;;
2602;SDS011;1311;47.966;7.958;2023-11-22T07:34:36;4.57;;;3.90;;
2602;SDS011;1311;47.966;7.958;2023-11-22T07:37:04;4.87;;;4.10;;
2602;SDS011;1311;47.966;7.958;2023-11-22T07:39:32;5.40;;;3.73;;
2602;SDS011;1311;47.966;7.958;2023-11-22T07:42:00;5.30;;;3.73;;
2602;SDS011;1311;47.966;7.958;2023-11-22T07:44:27;4.50;;;3.83;;
2602;SDS011;1311;47.966;7.958;2023-11-22T07:46:57;4.10;;;3.70;;
2602;SDS011;1311;47.966;7.958;2023-11-22T07:49:24;5.37;;;3.70;;
2602;SDS011;1311;47.966;7.958;2023-11-22T07:51:52;6.20;;;3.70;;
2602;SDS011;1311;47.966;7.958;2023-11-22T07:54:19;6.17;;;3.87;;
2602;SDS011;1311;47.966;7.958;2023-11-22T07:56:47;3.83;;;3.47;;
2602;SDS011;1311;47.966;7.958;2023-11-22T07:59:14;3.97;;;3.10;;
2602;SDS011;1311;47.966;7.958;2023-11-22T08:01:42;4.30;;;3.43;;
2602;SDS011;1311;47.966;7.958;2023-11-22T08:04:09;3.30;;;2.70;;
2602;SDS011;1311;47.966;7.958;2023-11-22T08:06:37;4.83;;;3.80;;
2602;SDS011;1311;47.966;7.958;2023-11-22T08:09:05;4.50;;;3.20;;
2602;SDS011;1311;47.966;7.958;2023-11-22T08:11:34;4.27;;;2.97;;
2602;SDS011;1311;47.966;7.958;2023-11-22T08:14:01;3.50;;;2.90;;
2602;SDS011;1311;47.966;7.958;2023-11-22T08:16:28;5.47;;;2.77;;
2602;SDS011;1311;47.966;7.958;2023-11-22T08:18:54;2.20;;;2.10;;
2602;SDS011;1311;47.966;7.958;2023-11-22T08:21:21;2.60;;;2.40;;
2602;SDS011;1311;47.966;7.958;2023-11-22T08:23:48;3.77;;;2.47;;
2602;SDS011;1311;47.966;7.958;2023-11-22T08:26:17;3.13;;;2.57;;
2602;SDS011;1311;47.966;7.958;2023-11-22T08:28:43;2.83;;;2.60;;
2602;SDS011;1311;47.966;7.958;2023-11-22T08:31:10;4.00;;;2.60;;
2602;SDS011;1311;47.966;7.958;2023-11-22T08:33:37;2.77;;;2.57;;
2602;SDS011;1311;47.966;7.958;2023-11-22T08:36:06;2.90;;;2.60;;
2602;SDS011;1311;47.966;7.958;2023-11-22T08:38:35;3.40;;;2.80;;
2602;SDS011;1311;47.966;7.958;2023-11-22T08:41:01;3.13;;;2.70;;
2602;SDS011;1311;47.966;7.958;2023-11-22T08:43:31;3.37;;;3.00;;
2602;SDS011;1311;47.966;7.958;2023-11-22T08:45:58;3.00;;;2.70;;
2602;SDS011;1311;47.966;7.958;2023-11-22T08:48:25;3.33;;;3.03;;
2602;SDS011;1311;47.966;7.958;2023-11-22T08:50:53;3.23;;;2.93;;
2602;SDS011;1311;47.966;7.958;2023-11-22T08:53:21;3.17;;;2.87;;
2602;SDS011;1311;47.966;7.958;2023-11-22T08:55:47;3.13;;;2.73;;
2602;SDS011;1311;47.966;7.958;2023-11-22T08:58:14;5.30;;;3.90;;
2602;SDS011;1311;47.966;7.958;2023-11-22T09:00:42;4.57;;;3.37;;
2602;SDS011;1311;47.966;7.958;2023-11-22T09:03:10;3.47;;;2.83;;
2602;SDS011;1311;47.966;7.958;2023-11-22T09:05:38;3.97;;;3.30;;
2602;SDS011;1311;47.966;7.958;2023-11-22T09:08:04;3.93;;;3.57;;
2602;SDS011;1311;47.966;7.958;2023-11-22T09:10:31;4.00;;;3.60;;
2602;SDS011;1311;47.966;7.958;2023-11-22T09:12:58;4.40;;;3.73;;
2602;SDS011;1311;47.966;7.958;2023-11-22T09:15:25;5.13;;;4.20;;
2602;SDS011;1311;47.966;7.958;2023-11-22T09:17:55;4.60;;;4.10;;
2602;SDS011;1311;47.966;7.958;2023-11-22T09:20:23;5.20;;;4.60;;
2602;SDS011;1311;47.966;7.958;2023-11-22T09:22:50;4.80;;;3.67;;
2602;SDS011;1311;47.966;7.958;2023-11-22T09:25:19;4.50;;;4.10;;
2602;SDS011;1311;47.966;7.958;2023-11-22T09:27:47;5.43;;;3.90;;
2602;SDS011;1311;47.966;7.958;2023-11-22T09:30:18;3.83;;;3.43;;
2602;SDS011;1311;47.966;7.958;2023-11-22T09:32:58;4.00;;;3.63;;
2602;SDS011;1311;47.966;7.958;2023-11-22T09:35:26;4.30;;;3.73;;
2602;SDS011;1311;47.966;7.958;2023-11-22T09:37:54;5.40;;;3.60;;
2602;SDS011;1311;47.966;7.958;2023-11-22T09:40:21;4.10;;;3.70;;
2602;SDS011;1311;47.966;7.958;2023-11-22T09:42:48;6.43;;;4.30;;
2602;SDS011;1311;47.966;7.958;2023-11-22T09:45:18;4.50;;;4.10;;
2602;SDS011;1311;47.966;7.958;2023-11-22T09:47:45;6.87;;;4.33;;
2602;SDS011;1311;47.966;7.958;2023-11-22T09:50:16;6.10;;;4.20;;
2602;SDS011;1311;47.966;7.958;2023-11-22T09:52:46;7.27;;;4.67;;
2602;SDS011;1311;47.966;7.958;2023-11-22T09:55:16;4.97;;;4.30;;
2602;SDS011;1311;47.966;7.958;2023-11-22T09:57:43;5.63;;;4.53;;
2602;SDS011;1311;47.966;7.958;2023-11-22T10:00:10;6.33;;;4.10;;
2602;SDS011;1311;47.966;7.958;2023-11-22T10:02:39;5.03;;;4.27;;
2602;SDS011;1311;47.966;7.958;2023-11-22T10:05:06;6.67;;;4.77;;
2602;SDS011;1311;47.966;7.958;2023-11-22T10:07:35;5.80;;;4.70;;
2602;SDS011;1311;47.966;7.958;2023-11-22T10:10:03;5.30;;;4.80;;
2602;SDS011;1311;47.966;7.958;2023-11-22T10:12:32;6.00;;;4.67;;
2602;SDS011;1311;47.966;7.958;2023-11-22T10:15:11;5.53;;;4.10;;
2602;SDS011;1311;47.966;7.958;2023-11-22T10:17:39;6.27;;;5.20;;
2602;SDS011;1311;47.966;7.958;2023-11-22T10:20:06;6.90;;;4.97;;
2602;SDS011;1311;47.966;7.958;2023-11-22T10:22:46;8.60;;;5.90;;
2602;SDS011;1311;47.966;7.958;2023-11-22T10:25:13;7.10;;;5.53;;
2602;SDS011;1311;47.966;7.958;2023-11-22T10:27:43;7.23;;;5.20;;
2602;SDS011;1311;47.966;7.958;2023-11-22T10:30:11;5.73;;;5.23;;
2602;SDS011;1311;47.966;7.958;2023-11-22T10:32:39;6.10;;;4.70;;
2602;SDS011;1311;47.966;7.958;2023-11-22T10:35:07;5.43;;;4.93;;
2602;SDS011;1311;47.966;7.958;2023-11-22T10:37:34;5.77;;;5.17;;
2602;SDS011;1311;47.966;7.958;2023-11-22T10:40:03;5.90;;;4.73;;
2602;SDS011;1311;47.966;7.958;2023-11-22T10:42:31;5.97;;;4.50;;
2602;SDS011;1311;47.966;7.958;2023-11-22T10:45:00;4.47;;;4.07;;
2602;SDS011;1311;47.966;7.958;2023-11-22T10:47:28;5.00;;;4.50;;
2602;SDS011;1311;47.966;7.958;2023-11-22T10:49:56;4.63;;;3.97;;
2602;SDS011;1311;47.966;7.958;2023-11-22T10:52:26;6.90;;;4.60;;
2602;SDS011;1311;47.966;7.958;2023-11-22T10:55:01;5.23;;;4.33;;
2602;SDS011;1311;47.966;7.958;2023-11-22T10:57:31;5.57;;;4.30;;
2602;SDS011;1311;47.966;7.958;2023-11-22T11:00:00;5.10;;;4.30;;
2602;SDS011;1311;47.966;7.958;2023-11-22T11:02:33;7.63;;;4.47;;
2602;SDS011;1311;47.966;7.958;2023-11-22T11:05:08;4.60;;;4.20;;
2602;SDS011;1311;47.966;7.958;2023-11-22T11:07:42;3.83;;;3.43;;
2602;SDS011;1311;47.966;7.958;2023-11-22T11:10:16;4.50;;;3.47;;
2602;SDS011;1311;47.966;7.958;2023-11-22T11:12:45;3.70;;;3.37;;
2602;SDS011;1311;47.966;7.958;2023-11-22T11:15:12;3.50;;;3.20;;
2602;SDS011;1311;47.966;7.958;2023-11-22T11:17:41;4.63;;;3.50;;
2602;SDS011;1311;47.966;7.958;2023-11-22T11:20:09;4.27;;;3.67;;
2602;SDS011;1311;47.966;7.958;2023-11-22T11:22:38;5.50;;;3.77;;
2602;SDS011;1311;47.966;7.958;2023-11-22T11:25:05;4.43;;;3.80;;
2602;SDS011;1311;47.966;7.958;2023-11-22T11:27:34;4.30;;;3.60;;
2602;SDS011;1311;47.966;7.958;2023-11-22T11:30:01;5.00;;;3.47;;
2602;SDS011;1311;47.966;7.958;2023-11-22T11:33:06;3.83;;;3.43;;
2602;SDS011;1311;47.966;7.958;2023-11-22T11:35:43;4.10;;;3.70;;
2602;SDS011;1311;47.966;7.958;2023-11-22T11:38:13;5.17;;;3.30;;
2602;SDS011;1311;47.966;7.958;2023-11-22T11:40:42;4.20;;;3.63;;
2602;SDS011;1311;47.966;7.958;2023-11-22T11:43:11;3.70;;;3.37;;
2602;SDS011;1311;47.966;7.958;2023-11-22T11:45:38;4.47;;;3.70;;
2602;SDS011;1311;47.966;7.958;2023-11-22T11:48:10;5.03;;;3.50;;
2602;SDS011;1311;47.966;7.958;2023-11-22T11:50:39;3.83;;;3.30;;
2602;SDS011;1311;47.966;7.958;2023-11-22T11:53:06;4.33;;;3.40;;
2602;SDS011;1311;47.966;7.958;2023-11-22T11:55:33;3.53;;;2.70;;
2602;SDS011;1311;47.966;7.958;2023-11-22T11:58:03;3.80;;;3.40;;
2602;SDS011;1311;47.966;7.958;2023-11-22T12:00:34;4.37;;;3.07;;
2602;SDS011;1311;47.966;7.958;2023-11-22T12:03:05;4.40;;;3.27;;
2602;SDS011;1311;47.966;7.958;2023-11-22T12:05:32;4.60;;;3.00;;
2602;SDS011;1311;47.966;7.958;2023-11-22T12:07:59;4.17;;;3.33;;
2602;SDS011;1311;47.966;7.958;2023-11-22T12:10:25;3.70;;;3.30;;
2602;SDS011;1311;47.966;7.958;2023-11-22T12:12:52;5.50;;;3.43;;
2602;SDS011;1311;47.966;7.958;2023-11-22T12:15:19;3.90;;;3.00;;
2602;SDS011;1311;47.966;7.958;2023-11-22T12:17:49;4.30;;;3.00;;
2602;SDS011;1311;47.966;7.958;2023-11-22T12:20:17;3.80;;;3.10;;
2602;SDS011;1311;47.966;7.958;2023-11-22T12:22:46;4.50;;;3.10;;
2602;SDS011;1311;47.966;7.958;2023-11-22T12:25:14;4.93;;;3.13;;
2602;SDS011;1311;47.966;7.958;2023-11-22T12:27:41;4.40;;;3.70;;
2602;SDS011;1311;47.966;7.958;2023-11-22T12:30:09;3.80;;;3.40;;
2602;SDS011;1311;47.966;7.958;2023-11-22T12:32:54;5.00;;;3.50;;
2602;SDS011;1311;47.966;7.958;2023-11-22T12:35:22;4.20;;;3.30;;
2602;SDS011;1311;47.966;7.958;2023-11-22T12:37:49;3.43;;;2.87;;
2602;SDS011;1311;47.966;7.958;2023-11-22T12:40:16;4.30;;;3.50;;
2602;SDS011;1311;47.966;7.958;2023-11-22T12:42:49;3.67;;;3.27;;
2602;SDS011;1311;47.966;7.958;2023-11-22T12:45:18;4.40;;;3.30;;
2602;SDS011;1311;47.966;7.958;2023-11-22T12:47:46;5.47;;;3.20;;
2602;SDS011;1311;47.966;7.958;2023-11-22T12:53:10;4.07;;;3.30;;
2602;SDS011;1311;47.966;7.958;2023-11-22T12:55:41;4.13;;;2.93;;
2602;SDS011;1311;47.966;7.958;2023-11-22T12:58:09;4.33;;;2.87;;
2602;SDS011;1311;47.966;7.958;2023-11-22T13:00:37;4.20;;;3.50;;
2602;SDS011;1311;47.966;7.958;2023-11-22T13:03:04;3.33;;;2.67;;
2602;SDS011;1311;47.966;7.958;2023-11-22T13:05:31;3.73;;;3.23;;
2602;SDS011;1311;47.966;7.958;2023-11-22T13:07:58;3.53;;;2.83;;
2602;SDS011;1311;47.966;7.958;2023-11-22T13:10:26;4.37;;;3.70;;
2602;SDS011;1311;47.966;7.958;2023-11-22T13:12:54;3.50;;;3.20;;
2602;SDS011;1311;47.966;7.958;2023-11-22T13:15:21;3.10;;;2.80;;
2602;SDS011;1311;47.966;7.958;2023-11-22T13:17:49;3.20;;;2.50;;
2602;SDS011;1311;47.966;7.958;2023-11-22T13:20:20;5.20;;;3.73;;
2602;SDS011;1311;47.966;7.958;2023-11-22T13:22:48;3.83;;;3.43;;
2602;SDS011;1311;47.966;7.958;2023-11-22T13:25:15;3.90;;;3.07;;
2602;SDS011;1311;47.966;7.958;2023-11-22T13:27:45;4.63;;;3.70;;
2602;SDS011;1311;47.966;7.958;2023-11-22T13:30:13;5.07;;;3.70;;
2602;SDS011;1311;47.966;7.958;2023-11-22T13:32:40;7.37;;;3.70;;
2602;SDS011;1311;47.966;7.958;2023-11-22T13:35:08;7.13;;;6.07;;
2602;SDS011;1311;47.966;7.958;2023-11-22T13:37:40;10.80;;;6.77;;
2602;SDS011;1311;47.966;7.958;2023-11-22T13:40:08;9.87;;;6.40;;
2602;SDS011;1311;47.966;7.958;2023-11-22T13:42:39;7.43;;;5.00;;
2602;SDS011;1311;47.966;7.958;2023-11-22T13:45:09;4.50;;;4.07;;
2602;SDS011;1311;47.966;7.958;2023-11-22T13:47:40;5.23;;;4.20;;
2602;SDS011;1311;47.966;7.958;2023-11-22T13:50:07;4.00;;;3.33;;
2602;SDS011;1311;47.966;7.958;2023-11-22T13:52:34;4.07;;;3.10;;
2602;SDS011;1311;47.966;7.958;2023-11-22T13:55:01;3.00;;;2.70;;
2602;SDS011;1311;47.966;7.958;2023-11-22T13:57:33;5.07;;;3.87;;
2602;SDS011;1311;47.966;7.958;2023-11-22T14:00:00;6.10;;;2.90;;
2602;SDS011;1311;47.966;7.958;2023-11-22T14:02:29;3.93;;;3.37;;
2602;SDS011;1311;47.966;7.958;2023-11-22T14:04:56;4.50;;;3.10;;
2602;SDS011;1311;47.966;7.958;2023-11-22T14:07:24;4.53;;;3.53;;
2602;SDS011;1311;47.966;7.958;2023-11-22T14:09:52;6.47;;;4.17;;
2602;SDS011;1311;47.966;7.958;2023-11-22T14:12:19;6.30;;;4.27;;
2602;SDS011;1311;47.966;7.958;2023-11-22T14:14:46;7.37;;;4.70;;
2602;SDS011;1311;47.966;7.958;2023-11-22T14:17:12;5.10;;;3.80;;
2602;SDS011;1311;47.966;7.958;2023-11-22T14:19:41;10.13;;;4.10;;
2602;SDS011;1311;47.966;7.958;2023-11-22T14:22:07;8.20;;;4.40;;
2602;SDS011;1311;47.966;7.958;2023-11-22T14:24:34;5.77;;;4.37;;
2602;SDS011;1311;47.966;7.958;2023-11-22T14:27:04;6.83;;;4.17;;
2602;SDS011;1311;47.966;7.958;2023-11-22T14:29:30;4.50;;;3.87;;
2602;SDS011;1311;47.966;7.958;2023-11-22T14:31:58;6.70;;;4.90;;
2602;SDS011;1311;47.966;7.958;2023-11-22T14:34:25;5.17;;;3.93;;
2602;SDS011;1311;47.966;7.958;2023-11-22T14:36:52;6.13;;;4.27;;
2602;SDS011;1311;47.966;7.958;2023-11-22T14:39:19;5.00;;;3.93;;
2602;SDS011;1311;47.966;7.958;2023-11-22T14:41:46;5.87;;;3.80;;
2602;SDS011;1311;47.966;7.958;2023-11-22T14:44:13;5.80;;;4.77;;
2602;SDS011;1311;47.966;7.958;2023-11-22T14:46:40;7.13;;;4.97;;
2602;SDS011;1311;47.966;7.958;2023-11-22T14:49:07;9.90;;;4.93;;
2602;SDS011;1311;47.966;7.958;2023-11-22T14:51:34;6.90;;;5.10;;
2602;SDS011;1311;47.966;7.958;2023-11-22T14:54:02;5.63;;;4.30;;
2602;SDS011;1311;47.966;7.958;2023-11-22T14:56:29;9.50;;;5.93;;
2602;SDS011;1311;47.966;7.958;2023-11-22T14:58:56;6.50;;;4.80;;
2602;SDS011;1311;47.966;7.958;2023-11-22T15:01:22;7.23;;;4.10;;
2602;SDS011;1311;47.966;7.958;2023-11-22T15:03:50;5.60;;;3.90;;
2602;SDS011;1311;47.966;7.958;2023-11-22T15:06:18;5.53;;;4.10;;
2602;SDS011;1311;47.966;7.958;2023-11-22T15:08:45;7.47;;;4.80;;
2602;SDS011;1311;47.966;7.958;2023-11-22T15:11:13;4.80;;;4.27;;
2602;SDS011;1311;47.966;7.958;2023-11-22T15:13:40;5.90;;;4.00;;
2602;SDS011;1311;47.966;7.958;2023-11-22T15:16:07;5.90;;;4.17;;